sensor_id;sensor_type;location;lat;lon;timestamp;pressure;altitude;pressure_sealevel;temperature;humidity
30897;BME280;64229;52.246;21.054;2023-06-22T00:01:46;100601.56;;;20.91;100.00
30897;BME280;64229;52.246;21.054;2023-06-22T00:04:11;100594.56;;;20.90;100.00
30897;BME280;64229;52.246;21.054;2023-06-22T00:06:36;100578.34;;;20.73;100.00
30897;BME280;64229;52.246;21.054;2023-06-22T00:09:01;100603.34;;;20.87;100.00
30897;BME280;64229;52.246;21.054;2023-06-22T00:11:28;100609.91;;;20.86;100.00
30897;BME280;64229;52.246;21.054;2023-06-22T00:13:53;100605.91;;;20.84;100.00
30897;BME280;64229;52.246;21.054;2023-06-22T00:16:19;100604.81;;;20.85;100.00
30897;BME280;64229;52.246;21.054;2023-06-22T00:18:44;100614.03;;;20.84;100.00
30897;BME280;64229;52.246;21.054;2023-06-22T00:21:12;100618.84;;;20.87;100.00
30897;BME280;64229;52.246;21.054;2023-06-22T00:23:38;100606.72;;;20.84;100.00
30897;BME280;64229;52.246;21.054;2023-06-22T00:26:03;100608.31;;;20.85;100.00
30897;BME280;64229;52.246;21.054;2023-06-22T00:28:28;100567.72;;;20.59;100.00
30897;BME280;64229;52.246;21.054;2023-06-22T00:30:54;100588.72;;;20.71;100.00
30897;BME280;64229;52.246;21.054;2023-06-22T00:33:19;100609.75;;;20.83;100.00
30897;BME280;64229;52.246;21.054;2023-06-22T00:35:45;100596.38;;;20.77;100.00
30897;BME280;64229;52.246;21.054;2023-06-22T00:38:11;100545.91;;;20.38;100.00
30897;BME280;64229;52.246;21.054;2023-06-22T00:40:37;100594.50;;;20.69;100.00
30897;BME280;64229;52.246;21.054;2023-06-22T00:43:03;100608.38;;;20.68;100.00
30897;BME280;64229;52.246;21.054;2023-06-22T00:45:28;100602.81;;;20.64;100.00
30897;BME280;64229;52.246;21.054;2023-06-22T00:47:57;100603.44;;;20.61;100.00
30897;BME280;64229;52.246;21.054;2023-06-22T00:50:24;100610.31;;;20.59;100.00
30897;BME280;64229;52.246;21.054;2023-06-22T00:52:56;100605.56;;;20.56;100.00
30897;BME280;64229;52.246;21.054;2023-06-22T00:55:22;100603.78;;;20.51;100.00
30897;BME280;64229;52.246;21.054;2023-06-22T00:57:48;100607.94;;;20.48;100.00
30897;BME280;64229;52.246;21.054;2023-06-22T01:00:17;100603.19;;;20.45;100.00
30897;BME280;64229;52.246;21.054;2023-06-22T01:02:45;100596.97;;;20.45;100.00
30897;BME280;64229;52.246;21.054;2023-06-22T01:05:13;100587.03;;;20.40;100.00
30897;BME280;64229;52.246;21.054;2023-06-22T01:08:00;100581.03;;;20.43;100.00
30897;BME280;64229;52.246;21.054;2023-06-22T01:10:36;100575.59;;;20.43;100.00
30897;BME280;64229;52.246;21.054;2023-06-22T01:13:10;100573.69;;;20.44;100.00
30897;BME280;64229;52.246;21.054;2023-06-22T01:15:45;100569.19;;;20.39;100.00
30897;BME280;64229;52.246;21.054;2023-06-22T01:18:15;100575.91;;;20.42;100.00
30897;BME280;64229;52.246;21.054;2023-06-22T01:20:42;100566.69;;;20.43;100.00
30897;BME280;64229;52.246;21.054;2023-06-22T01:23:29;100569.38;;;20.43;100.00
30897;BME280;64229;52.246;21.054;2023-06-22T01:29:15;100568.59;;;20.42;100.00
30897;BME280;64229;52.246;21.054;2023-06-22T01:31:42;100536.53;;;20.27;100.00
30897;BME280;64229;52.246;21.054;2023-06-22T01:34:09;100551.66;;;20.37;100.00
30897;BME280;64229;52.246;21.054;2023-06-22T01:36:37;100558.03;;;20.41;100.00
30897;BME280;64229;52.246;21.054;2023-06-22T01:39:04;100551.50;;;20.42;100.00
30897;BME280;64229;52.246;21.054;2023-06-22T01:41:33;100552.59;;;20.41;100.00
30897;BME280;64229;52.246;21.054;2023-06-22T01:43:59;100526.22;;;20.20;100.00
30897;BME280;64229;52.246;21.054;2023-06-22T01:46:24;100541.63;;;20.37;100.00
30897;BME280;64229;52.246;21.054;2023-06-22T01:48:50;100556.75;;;20.38;100.00
30897;BME280;64229;52.246;21.054;2023-06-22T01:51:16;100567.94;;;20.37;100.00
30897;BME280;64229;52.246;21.054;2023-06-22T01:53:42;100567.13;;;20.36;100.00
30897;BME280;64229;52.246;21.054;2023-06-22T01:56:07;100576.06;;;20.37;100.00
30897;BME280;64229;52.246;21.054;2023-06-22T01:58:33;100566.50;;;20.31;100.00
30897;BME280;64229;52.246;21.054;2023-06-22T02:01:11;100561.72;;;20.28;100.00
30897;BME280;64229;52.246;21.054;2023-06-22T02:03:41;100565.69;;;20.30;100.00
30897;BME280;64229;52.246;21.054;2023-06-22T02:06:14;100532.44;;;20.12;100.00
30897;BME280;64229;52.246;21.054;2023-06-22T02:08:47;100567.31;;;20.31;100.00
30897;BME280;64229;52.246;21.054;2023-06-22T02:11:14;100574.16;;;20.29;100.00
30897;BME280;64229;52.246;21.054;2023-06-22T02:13:41;100588.19;;;20.31;100.00
30897;BME280;64229;52.246;21.054;2023-06-22T02:16:10;100599.00;;;20.39;100.00
30897;BME280;64229;52.246;21.054;2023-06-22T02:18:36;100601.91;;;20.43;100.00
30897;BME280;64229;52.246;21.054;2023-06-22T02:21:02;100604.78;;;20.46;100.00
30897;BME280;64229;52.246;21.054;2023-06-22T02:23:27;100580.50;;;20.41;100.00
30897;BME280;64229;52.246;21.054;2023-06-22T02:25:53;100612.56;;;20.57;100.00
30897;BME280;64229;52.246;21.054;2023-06-22T02:28:19;100609.38;;;20.55;100.00
30897;BME280;64229;52.246;21.054;2023-06-22T02:30:44;100605.56;;;20.47;100.00
30897;BME280;64229;52.246;21.054;2023-06-22T02:33:09;100621.50;;;20.57;100.00
30897;BME280;64229;52.246;21.054;2023-06-22T02:35:35;100620.69;;;20.57;100.00
30897;BME280;64229;52.246;21.054;2023-06-22T02:38:03;100624.53;;;20.56;100.00
30897;BME280;64229;52.246;21.054;2023-06-22T02:40:29;100617.66;;;20.49;100.00
30897;BME280;64229;52.246;21.054;2023-06-22T02:42:55;100631.41;;;20.53;100.00
30897;BME280;64229;52.246;21.054;2023-06-22T02:45:20;100635.69;;;20.54;100.00
30897;BME280;64229;52.246;21.054;2023-06-22T02:47:46;100612.88;;;20.38;100.00
30897;BME280;64229;52.246;21.054;2023-06-22T02:50:13;100645.56;;;20.59;100.00
30897;BME280;64229;52.246;21.054;2023-06-22T02:52:39;100620.56;;;20.36;100.00
30897;BME280;64229;52.246;21.054;2023-06-22T02:55:05;100651.81;;;20.50;100.00
30897;BME280;64229;52.246;21.054;2023-06-22T02:57:32;100648.63;;;20.48;100.00
30897;BME280;64229;52.246;21.054;2023-06-22T02:59:57;100655.63;;;20.49;100.00
30897;BME280;64229;52.246;21.054;2023-06-22T03:02:23;100646.56;;;20.45;100.00
30897;BME280;64229;52.246;21.054;2023-06-22T03:04:48;100650.22;;;20.49;100.00
30897;BME280;64229;52.246;21.054;2023-06-22T03:07:14;100649.28;;;20.45;100.00
30897;BME280;64229;52.246;21.054;2023-06-22T03:09:40;100657.72;;;20.44;100.00
30897;BME280;64229;52.246;21.054;2023-06-22T03:12:07;100662.03;;;20.54;100.00
30897;BME280;64229;52.246;21.054;2023-06-22T03:14:32;100660.72;;;20.51;100.00
30897;BME280;64229;52.246;21.054;2023-06-22T03:16:57;100673.03;;;20.48;100.00
30897;BME280;64229;52.246;21.054;2023-06-22T03:19:28;100668.25;;;20.45;100.00
30897;BME280;64229;52.246;21.054;2023-06-22T03:21:55;100678.63;;;20.43;100.00
30897;BME280;64229;52.246;21.054;2023-06-22T03:24:20;100669.97;;;20.41;100.00
30897;BME280;64229;52.246;21.054;2023-06-22T03:26:45;100672.09;;;20.44;100.00
30897;BME280;64229;52.246;21.054;2023-06-22T03:29:12;100675.91;;;20.43;100.00
30897;BME280;64229;52.246;21.054;2023-06-22T03:31:37;100647.53;;;20.15;100.00
30897;BME280;64229;52.246;21.054;2023-06-22T03:34:02;100677.00;;;20.34;100.00
30897;BME280;64229;52.246;21.054;2023-06-22T03:36:27;100657.88;;;20.21;100.00
30897;BME280;64229;52.246;21.054;2023-06-22T03:38:53;100681.94;;;20.40;100.00
30897;BME280;64229;52.246;21.054;2023-06-22T03:41:18;100677.28;;;20.41;100.00
30897;BME280;64229;52.246;21.054;2023-06-22T03:43:43;100643.53;;;20.21;100.00
30897;BME280;64229;52.246;21.054;2023-06-22T03:46:09;100635.88;;;20.14;100.00
30897;BME280;64229;52.246;21.054;2023-06-22T03:48:34;100682.44;;;20.42;100.00
30897;BME280;64229;52.246;21.054;2023-06-22T03:51:00;100685.44;;;20.49;100.00
30897;BME280;64229;52.246;21.054;2023-06-22T03:53:26;100694.25;;;20.46;100.00
30897;BME280;64229;52.246;21.054;2023-06-22T03:55:52;100694.69;;;20.40;100.00
30897;BME280;64229;52.246;21.054;2023-06-22T03:58:19;100700.78;;;20.45;100.00
30897;BME280;64229;52.246;21.054;2023-06-22T04:00:52;100708.13;;;20.45;100.00
30897;BME280;64229;52.246;21.054;2023-06-22T04:03:18;100673.97;;;20.27;100.00
30897;BME280;64229;52.246;21.054;2023-06-22T04:05:47;100711.28;;;20.38;100.00
30897;BME280;64229;52.246;21.054;2023-06-22T04:08:13;100686.25;;;20.24;100.00
30897;BME280;64229;52.246;21.054;2023-06-22T04:10:39;100709.34;;;20.39;100.00
30897;BME280;64229;52.246;21.054;2023-06-22T04:13:05;100708.56;;;20.38;100.00
30897;BME280;64229;52.246;21.054;2023-06-22T04:15:30;100707.31;;;20.44;100.00
30897;BME280;64229;52.246;21.054;2023-06-22T04:17:55;100716.72;;;20.47;100.00
30897;BME280;64229;52.246;21.054;2023-06-22T04:20:21;100713.53;;;20.45;100.00
30897;BME280;64229;52.246;21.054;2023-06-22T04:22:46;100723.41;;;20.49;100.00
30897;BME280;64229;52.246;21.054;2023-06-22T04:25:12;100718.63;;;20.46;100.00
30897;BME280;64229;52.246;21.054;2023-06-22T04:27:37;100722.63;;;20.49;100.00
30897;BME280;64229;52.246;21.054;2023-06-22T04:30:06;100697.28;;;20.45;100.00
30897;BME280;64229;52.246;21.054;2023-06-22T04:32:33;100721.03;;;20.57;100.00
30897;BME280;64229;52.246;21.054;2023-06-22T04:34:58;100714.34;;;20.54;100.00
30897;BME280;64229;52.246;21.054;2023-06-22T04:37:25;100719.56;;;20.59;100.00
30897;BME280;64229;52.246;21.054;2023-06-22T04:39:51;100695.84;;;20.47;100.00
30897;BME280;64229;52.246;21.054;2023-06-22T04:42:16;100718.94;;;20.62;100.00
30897;BME280;64229;52.246;21.054;2023-06-22T04:44:42;100718.91;;;20.79;100.00
30897;BME280;64229;52.246;21.054;2023-06-22T04:47:07;100724.19;;;20.85;100.00
30897;BME280;64229;52.246;21.054;2023-06-22T04:49:34;100722.41;;;20.80;100.00
30897;BME280;64229;52.246;21.054;2023-06-22T04:52:03;100713.34;;;20.76;100.00
30897;BME280;64229;52.246;21.054;2023-06-22T04:54:29;100694.97;;;20.73;100.00
30897;BME280;64229;52.246;21.054;2023-06-22T04:56:58;100715.38;;;20.88;100.00
30897;BME280;64229;52.246;21.054;2023-06-22T04:59:24;100716.00;;;20.93;100.00
30897;BME280;64229;52.246;21.054;2023-06-22T05:01:56;100723.97;;;20.98;100.00
30897;BME280;64229;52.246;21.054;2023-06-22T05:04:22;100718.53;;;20.98;100.00
30897;BME280;64229;52.246;21.054;2023-06-22T05:06:49;100726.69;;;20.98;100.00
30897;BME280;64229;52.246;21.054;2023-06-22T05:09:14;100692.56;;;20.80;100.00
30897;BME280;64229;52.246;21.054;2023-06-22T05:11:39;100706.91;;;20.89;100.00
30897;BME280;64229;52.246;21.054;2023-06-22T05:14:05;100718.09;;;20.88;100.00
30897;BME280;64229;52.246;21.054;2023-06-22T05:16:30;100723.97;;;20.98;100.00
30897;BME280;64229;52.246;21.054;2023-06-22T05:18:56;100722.19;;;21.02;100.00
30897;BME280;64229;52.246;21.054;2023-06-22T05:21:26;100724.44;;;21.00;100.00
30897;BME280;64229;52.246;21.054;2023-06-22T05:23:52;100725.88;;;20.98;100.00
30897;BME280;64229;52.246;21.054;2023-06-22T05:26:19;100725.22;;;21.01;100.00
30897;BME280;64229;52.246;21.054;2023-06-22T06:14:05;100749.63;;;21.09;100.00
30897;BME280;64229;52.246;21.054;2023-06-22T06:16:30;100772.72;;;21.24;100.00
30897;BME280;64229;52.246;21.054;2023-06-22T06:18:55;100776.72;;;21.35;100.00
30897;BME280;64229;52.246;21.054;2023-06-22T06:21:21;100763.78;;;21.24;100.00
30897;BME280;64229;52.246;21.054;2023-06-22T06:23:47;100787.25;;;21.37;100.00
30897;BME280;64229;52.246;21.054;2023-06-22T06:26:12;100726.16;;;21.05;100.00
30897;BME280;64229;52.246;21.054;2023-06-22T06:28:37;100786.09;;;21.47;100.00
30897;BME280;64229;52.246;21.054;2023-06-22T06:31:03;100789.31;;;21.49;100.00
30897;BME280;64229;52.246;21.054;2023-06-22T06:33:32;100784.19;;;21.47;100.00
30897;BME280;64229;52.246;21.054;2023-06-22T06:35:57;100772.88;;;21.36;100.00
30897;BME280;64229;52.246;21.054;2023-06-22T06:38:23;100780.53;;;21.43;100.00
30897;BME280;64229;52.246;21.054;2023-06-22T06:40:48;100777.94;;;21.47;100.00
30897;BME280;64229;52.246;21.054;2023-06-22T06:43:14;100775.41;;;21.50;100.00
30897;BME280;64229;52.246;21.054;2023-06-22T06:45:39;100781.59;;;21.59;100.00
30897;BME280;64229;52.246;21.054;2023-06-22T06:48:04;100778.66;;;21.73;100.00
30897;BME280;64229;52.246;21.054;2023-06-22T06:50:30;100782.63;;;21.76;100.00
30897;BME280;64229;52.246;21.054;2023-06-22T06:52:55;100778.09;;;21.80;100.00
30897;BME280;64229;52.246;21.054;2023-06-22T06:55:21;100765.59;;;21.87;100.00
30897;BME280;64229;52.246;21.054;2023-06-22T06:57:49;100736.91;;;21.78;100.00
30897;BME280;64229;52.246;21.054;2023-06-22T07:00:15;100777.63;;;22.16;100.00
30897;BME280;64229;52.246;21.054;2023-06-22T07:02:44;100770.78;;;22.31;100.00
30897;BME280;64229;52.246;21.054;2023-06-22T07:05:11;100777.34;;;22.50;99.00
30897;BME280;64229;52.246;21.054;2023-06-22T07:07:37;100776.53;;;22.71;96.85
30897;BME280;64229;52.246;21.054;2023-06-22T07:10:03;100769.53;;;22.82;96.03
30897;BME280;64229;52.246;21.054;2023-06-22T07:12:29;100774.69;;;22.96;95.22
30897;BME280;64229;52.246;21.054;2023-06-22T07:15:01;100784.16;;;23.11;92.10
30897;BME280;64229;52.246;21.054;2023-06-22T07:17:26;100780.56;;;23.19;91.26
30897;BME280;64229;52.246;21.054;2023-06-22T07:19:52;100737.91;;;22.77;91.88
30897;BME280;64229;52.246;21.054;2023-06-22T07:22:17;100782.59;;;23.09;93.33
30897;BME280;64229;52.246;21.054;2023-06-22T07:24:43;100786.59;;;23.49;92.72
30897;BME280;64229;52.246;21.054;2023-06-22T07:27:08;100791.97;;;24.06;86.75
30897;BME280;64229;52.246;21.054;2023-06-22T07:29:36;100791.03;;;24.14;85.53
30897;BME280;64229;52.246;21.054;2023-06-22T07:32:01;100806.69;;;24.30;83.54
30897;BME280;64229;52.246;21.054;2023-06-22T07:34:29;100792.56;;;24.80;82.75
30897;BME280;64229;52.246;21.054;2023-06-22T07:36:55;100796.78;;;25.68;80.05
30897;BME280;64229;52.246;21.054;2023-06-22T07:39:20;100804.72;;;26.60;75.19
30897;BME280;64229;52.246;21.054;2023-06-22T07:41:50;100803.47;;;26.96;72.31
30897;BME280;64229;52.246;21.054;2023-06-22T07:44:16;100793.00;;;27.01;71.43
30897;BME280;64229;52.246;21.054;2023-06-22T07:46:41;100799.91;;;27.15;69.13
30897;BME280;64229;52.246;21.054;2023-06-22T07:49:06;100800.28;;;27.13;68.31
30897;BME280;64229;52.246;21.054;2023-06-22T07:51:33;100784.44;;;27.03;68.80
30897;BME280;64229;52.246;21.054;2023-06-22T07:53:58;100793.81;;;27.71;67.54
30897;BME280;64229;52.246;21.054;2023-06-22T07:56:24;100803.66;;;28.58;64.03
30897;BME280;64229;52.246;21.054;2023-06-22T07:58:49;100799.53;;;29.53;60.35
30897;BME280;64229;52.246;21.054;2023-06-22T08:01:14;100784.66;;;30.19;56.75
30897;BME280;64229;52.246;21.054;2023-06-22T08:03:40;100811.31;;;30.95;52.55
30897;BME280;64229;52.246;21.054;2023-06-22T08:06:07;100811.41;;;31.42;51.12
30897;BME280;64229;52.246;21.054;2023-06-22T08:08:34;100802.34;;;31.59;50.30
30897;BME280;64229;52.246;21.054;2023-06-22T08:11:00;100797.56;;;31.88;49.05
30897;BME280;64229;52.246;21.054;2023-06-22T08:13:25;100796.38;;;31.96;47.90
30897;BME280;64229;52.246;21.054;2023-06-22T08:15:50;100790.47;;;31.65;48.43
30897;BME280;64229;52.246;21.054;2023-06-22T08:18:16;100791.25;;;31.94;48.20
30897;BME280;64229;52.246;21.054;2023-06-22T08:20:41;100785.56;;;32.48;45.73
30897;BME280;64229;52.246;21.054;2023-06-22T08:23:07;100795.56;;;33.01;44.28
30897;BME280;64229;52.246;21.054;2023-06-22T08:25:33;100795.09;;;33.58;42.96
30897;BME280;64229;52.246;21.054;2023-06-22T08:27:59;100793.78;;;34.45;39.46
30897;BME280;64229;52.246;21.054;2023-06-22T08:30:25;100791.56;;;35.17;36.09
30897;BME280;64229;52.246;21.054;2023-06-22T08:32:50;100785.41;;;35.56;35.07
30897;BME280;64229;52.246;21.054;2023-06-22T08:35:15;100791.31;;;35.08;35.50
30897;BME280;64229;52.246;21.054;2023-06-22T08:37:41;100786.81;;;35.18;35.89
30897;BME280;64229;52.246;21.054;2023-06-22T08:40:08;100796.69;;;35.46;35.59
30897;BME280;64229;52.246;21.054;2023-06-22T08:42:37;100773.75;;;35.65;34.38
30897;BME280;64229;52.246;21.054;2023-06-22T08:45:03;100787.88;;;35.94;34.60
30897;BME280;64229;52.246;21.054;2023-06-22T08:47:29;100794.72;;;35.89;33.74
30897;BME280;64229;52.246;21.054;2023-06-22T08:49:54;100788.53;;;36.77;31.78
30897;BME280;64229;52.246;21.054;2023-06-22T08:52:20;100785.69;;;36.97;30.49
30897;BME280;64229;52.246;21.054;2023-06-22T08:54:46;100782.59;;;36.59;31.57
30897;BME280;64229;52.246;21.054;2023-06-22T08:57:11;100800.41;;;36.98;30.46
30897;BME280;64229;52.246;21.054;2023-06-22T08:59:37;100791.47;;;36.70;31.07
30897;BME280;64229;52.246;21.054;2023-06-22T09:02:02;100802.72;;;36.83;30.60
30897;BME280;64229;52.246;21.054;2023-06-22T09:04:27;100804.63;;;36.86;30.10
30897;BME280;64229;52.246;21.054;2023-06-22T09:06:53;100804.31;;;37.00;29.35
30897;BME280;64229;52.246;21.054;2023-06-22T09:09:18;100809.09;;;37.16;30.07
30897;BME280;64229;52.246;21.054;2023-06-22T09:11:44;100807.53;;;37.15;29.48
30897;BME280;64229;52.246;21.054;2023-06-22T09:14:10;100812.31;;;37.15;28.61
30897;BME280;64229;52.246;21.054;2023-06-22T09:16:35;100805.59;;;36.79;28.45
30897;BME280;64229;52.246;21.054;2023-06-22T09:19:01;100806.22;;;37.03;28.07
30897;BME280;64229;52.246;21.054;2023-06-22T09:21:26;100796.59;;;36.72;28.77
30897;BME280;64229;52.246;21.054;2023-06-22T09:23:51;100794.47;;;37.28;28.67
30897;BME280;64229;52.246;21.054;2023-06-22T09:26:18;100790.16;;;37.73;27.40
30897;BME280;64229;52.246;21.054;2023-06-22T09:28:43;100785.69;;;37.91;25.81
30897;BME280;64229;52.246;21.054;2023-06-22T09:31:08;100783.09;;;37.55;25.92
30897;BME280;64229;52.246;21.054;2023-06-22T09:33:35;100774.31;;;37.41;25.69
30897;BME280;64229;52.246;21.054;2023-06-22T09:36:00;100783.47;;;37.70;25.43
30897;BME280;64229;52.246;21.054;2023-06-22T09:38:25;100784.69;;;37.69;25.22
30897;BME280;64229;52.246;21.054;2023-06-22T09:40:51;100787.28;;;37.15;26.16
30897;BME280;64229;52.246;21.054;2023-06-22T09:43:16;100785.63;;;37.17;26.28
30897;BME280;64229;52.246;21.054;2023-06-22T09:45:42;100780.06;;;37.17;26.26
30897;BME280;64229;52.246;21.054;2023-06-22T09:48:07;100768.31;;;37.26;26.33
30897;BME280;64229;52.246;21.054;2023-06-22T09:50:32;100769.88;;;37.43;26.14
30897;BME280;64229;52.246;21.054;2023-06-22T09:52:57;100778.72;;;37.22;25.90
30897;BME280;64229;52.246;21.054;2023-06-22T09:55:23;100768.03;;;37.20;26.16
30897;BME280;64229;52.246;21.054;2023-06-22T09:57:48;100763.78;;;37.16;26.56
30897;BME280;64229;52.246;21.054;2023-06-22T10:00:16;100767.03;;;36.62;27.61
30897;BME280;64229;52.246;21.054;2023-06-22T10:02:42;100769.38;;;36.63;27.17
30897;BME280;64229;52.246;21.054;2023-06-22T10:05:08;100770.41;;;36.33;27.76
30897;BME280;64229;52.246;21.054;2023-06-22T10:07:33;100761.81;;;36.47;27.47
30897;BME280;64229;52.246;21.054;2023-06-22T10:09:59;100757.63;;;36.39;26.37
30897;BME280;64229;52.246;21.054;2023-06-22T10:12:27;100780.84;;;36.49;25.56
30897;BME280;64229;52.246;21.054;2023-06-22T10:14:52;100770.94;;;36.28;25.21
30897;BME280;64229;52.246;21.054;2023-06-22T10:17:17;100776.06;;;35.90;25.90
30897;BME280;64229;52.246;21.054;2023-06-22T10:19:43;100765.47;;;35.15;27.27
30897;BME280;64229;52.246;21.054;2023-06-22T10:22:08;100770.22;;;34.30;29.41
30897;BME280;64229;52.246;21.054;2023-06-22T10:24:33;100769.31;;;33.68;30.23
30897;BME280;64229;52.246;21.054;2023-06-22T10:26:58;100769.63;;;33.32;30.59
30897;BME280;64229;52.246;21.054;2023-06-22T10:29:24;100767.25;;;32.75;31.92
30897;BME280;64229;52.246;21.054;2023-06-22T10:31:49;100737.59;;;32.03;32.27
30897;BME280;64229;52.246;21.054;2023-06-22T10:34:14;100752.66;;;31.77;33.05
30897;BME280;64229;52.246;21.054;2023-06-22T10:36:40;100741.63;;;31.45;33.67
30897;BME280;64229;52.246;21.054;2023-06-22T10:39:05;100759.00;;;31.38;34.19
30897;BME280;64229;52.246;21.054;2023-06-22T10:41:31;100755.03;;;31.10;34.51
30897;BME280;64229;52.246;21.054;2023-06-22T10:43:56;100751.06;;;30.79;36.48
30897;BME280;64229;52.246;21.054;2023-06-22T10:46:23;100736.38;;;30.47;37.15
30897;BME280;64229;52.246;21.054;2023-06-22T10:48:48;100745.44;;;30.44;37.47
30897;BME280;64229;52.246;21.054;2023-06-22T10:51:14;100749.34;;;30.36;37.84
30897;BME280;64229;52.246;21.054;2023-06-22T10:53:39;100749.69;;;30.23;38.30
30897;BME280;64229;52.246;21.054;2023-06-22T10:56:04;100752.72;;;30.04;39.06
30897;BME280;64229;52.246;21.054;2023-06-22T10:58:29;100749.13;;;29.96;38.92
30897;BME280;64229;52.246;21.054;2023-06-22T11:00:55;100743.56;;;29.86;38.51
30897;BME280;64229;52.246;21.054;2023-06-22T11:03:20;100747.09;;;29.79;38.76
30897;BME280;64229;52.246;21.054;2023-06-22T11:05:45;100730.91;;;29.71;38.25
30897;BME280;64229;52.246;21.054;2023-06-22T11:08:12;100694.25;;;29.52;38.38
30897;BME280;64229;52.246;21.054;2023-06-22T11:10:38;100719.38;;;29.51;38.38
30897;BME280;64229;52.246;21.054;2023-06-22T11:13:03;100736.19;;;29.42;38.75
30897;BME280;64229;52.246;21.054;2023-06-22T11:15:30;100719.56;;;29.24;39.01
30897;BME280;64229;52.246;21.054;2023-06-22T11:17:55;100718.75;;;29.20;38.00
30897;BME280;64229;52.246;21.054;2023-06-22T11:20:20;100732.56;;;29.27;38.82
30897;BME280;64229;52.246;21.054;2023-06-22T11:22:46;100734.84;;;29.22;38.82
30897;BME280;64229;52.246;21.054;2023-06-22T11:25:11;100725.34;;;29.12;39.41
30897;BME280;64229;52.246;21.054;2023-06-22T11:27:37;100708.84;;;29.08;38.94
30897;BME280;64229;52.246;21.054;2023-06-22T11:30:03;100726.13;;;29.09;39.47
30897;BME280;64229;52.246;21.054;2023-06-22T11:32:28;100730.06;;;29.12;39.45
30897;BME280;64229;52.246;21.054;2023-06-22T11:34:54;100728.84;;;29.09;39.32
30897;BME280;64229;52.246;21.054;2023-06-22T11:37:19;100728.44;;;29.03;38.91
30897;BME280;64229;52.246;21.054;2023-06-22T11:39:44;100722.09;;;28.99;39.94
30897;BME280;64229;52.246;21.054;2023-06-22T11:42:10;100720.97;;;29.04;39.71
30897;BME280;64229;52.246;21.054;2023-06-22T11:44:35;100709.91;;;28.93;39.40
30897;BME280;64229;52.246;21.054;2023-06-22T11:47:01;100717.38;;;29.00;38.55
30897;BME280;64229;52.246;21.054;2023-06-22T11:49:28;100720.50;;;28.95;39.53
30897;BME280;64229;52.246;21.054;2023-06-22T11:51:54;100723.25;;;28.95;39.62
30897;BME280;64229;52.246;21.054;2023-06-22T11:54:19;100721.22;;;28.88;39.81
30897;BME280;64229;52.246;21.054;2023-06-22T11:56:44;100726.00;;;28.95;40.08
30897;BME280;64229;52.246;21.054;2023-06-22T11:59:10;100728.78;;;29.02;39.35
30897;BME280;64229;52.246;21.054;2023-06-22T12:01:35;100711.84;;;28.93;39.46
30897;BME280;64229;52.246;21.054;2023-06-22T12:04:00;100702.72;;;28.85;39.36
30897;BME280;64229;52.246;21.054;2023-06-22T12:06:25;100718.16;;;28.97;39.46
30897;BME280;64229;52.246;21.054;2023-06-22T12:08:51;100720.53;;;28.98;39.68
30897;BME280;64229;52.246;21.054;2023-06-22T12:11:16;100719.34;;;28.99;39.43
30897;BME280;64229;52.246;21.054;2023-06-22T12:13:42;100715.81;;;28.99;40.08
30897;BME280;64229;52.246;21.054;2023-06-22T12:16:07;100715.03;;;28.98;40.01
30897;BME280;64229;52.246;21.054;2023-06-22T12:18:32;100708.34;;;28.96;38.99
30897;BME280;64229;52.246;21.054;2023-06-22T12:20:58;100717.38;;;29.00;38.99
30897;BME280;64229;52.246;21.054;2023-06-22T12:23:23;100716.28;;;29.04;39.79
30897;BME280;64229;52.246;21.054;2023-06-22T12:25:48;100704.84;;;29.02;40.72
30897;BME280;64229;52.246;21.054;2023-06-22T12:28:13;100709.19;;;29.03;40.66
30897;BME280;64229;52.246;21.054;2023-06-22T12:30:39;100701.69;;;29.00;40.65
30897;BME280;64229;52.246;21.054;2023-06-22T12:33:04;100696.25;;;29.04;39.80
30897;BME280;64229;52.246;21.054;2023-06-22T12:35:29;100702.09;;;29.02;39.58
30897;BME280;64229;52.246;21.054;2023-06-22T12:37:55;100702.16;;;29.06;39.97
30897;BME280;64229;52.246;21.054;2023-06-22T12:40:20;100713.53;;;29.08;39.69
30897;BME280;64229;52.246;21.054;2023-06-22T12:42:45;100680.88;;;28.96;39.21
30897;BME280;64229;52.246;21.054;2023-06-22T12:45:10;100697.03;;;29.04;38.82
30897;BME280;64229;52.246;21.054;2023-06-22T12:47:36;100700.53;;;29.01;38.47
30897;BME280;64229;52.246;21.054;2023-06-22T12:50:01;100676.13;;;28.93;38.46
30897;BME280;64229;52.246;21.054;2023-06-22T12:52:27;100687.53;;;28.95;38.14
30897;BME280;64229;52.246;21.054;2023-06-22T12:54:52;100704.13;;;29.09;38.38
30897;BME280;64229;52.246;21.054;2023-06-22T12:57:18;100704.53;;;29.11;39.56
30897;BME280;64229;52.246;21.054;2023-06-22T12:59:44;100701.06;;;29.18;38.70
30897;BME280;64229;52.246;21.054;2023-06-22T13:02:10;100700.28;;;29.21;39.13
30897;BME280;64229;52.246;21.054;2023-06-22T13:04:35;100714.09;;;29.28;38.12
30897;BME280;64229;52.246;21.054;2023-06-22T13:07:00;100691.63;;;29.15;38.75
30897;BME280;64229;52.246;21.054;2023-06-22T13:09:25;100712.13;;;29.25;38.28
30897;BME280;64229;52.246;21.054;2023-06-22T13:11:50;100703.88;;;29.28;38.58
30897;BME280;64229;52.246;21.054;2023-06-22T13:14:17;100692.91;;;29.32;37.73
30897;BME280;64229;52.246;21.054;2023-06-22T13:16:42;100696.88;;;29.38;39.02
30897;BME280;64229;52.246;21.054;2023-06-22T13:19:08;100704.38;;;29.41;37.70